createdAt,value
2019-02-20T00:01:45.194Z,14.17
2019-02-20T00:04:12.466Z,14.77
2019-02-20T00:06:39.906Z,14.37
2019-02-20T00:09:07.182Z,13.07
2019-02-20T00:11:34.565Z,13.60
2019-02-20T00:14:01.954Z,14.17
2019-02-20T00:16:29.331Z,13.57
2019-02-20T00:18:56.691Z,14.03
2019-02-20T00:21:23.937Z,13.03
2019-02-20T00:23:51.277Z,13.10
2019-02-20T00:26:18.591Z,13.20
2019-02-20T00:28:45.966Z,11.87
2019-02-20T00:31:13.232Z,13.13
2019-02-20T00:33:40.470Z,13.93
2019-02-20T00:36:07.739Z,14.80
2019-02-20T00:38:34.983Z,14.87
2019-02-20T00:41:02.266Z,13.87
2019-02-20T00:43:29.522Z,13.20
2019-02-20T00:46:04.731Z,13.30
2019-02-20T00:48:43.249Z,13.60
2019-02-20T00:51:17.266Z,13.43
2019-02-20T00:53:49.577Z,13.07
2019-02-20T00:56:16.839Z,12.57
2019-02-20T00:58:44.219Z,13.00
2019-02-20T01:01:11.450Z,13.50
2019-02-20T01:03:38.834Z,12.57
2019-02-20T01:06:06.131Z,13.07
2019-02-20T01:08:33.414Z,13.90
2019-02-20T01:11:00.667Z,13.40
2019-02-20T01:13:28.014Z,14.03
2019-02-20T01:15:55.419Z,13.80
2019-02-20T01:18:22.905Z,14.10
2019-02-20T01:20:50.603Z,12.47
2019-02-20T01:23:17.877Z,13.77
2019-02-20T01:25:45.274Z,12.90
2019-02-20T01:28:12.582Z,12.30
2019-02-20T01:30:39.947Z,11.77
2019-02-20T01:33:07.352Z,13.27
2019-02-20T01:35:34.646Z,13.90
2019-02-20T01:38:02.050Z,13.40
2019-02-20T01:40:29.270Z,14.20
2019-02-20T01:42:56.685Z,12.93
2019-02-20T01:45:23.941Z,12.67
2019-02-20T01:47:51.230Z,12.20
2019-02-20T01:50:18.529Z,12.70
2019-02-20T01:52:45.907Z,11.63
2019-02-20T01:55:13.353Z,12.23
2019-02-20T01:57:40.618Z,12.90
2019-02-20T02:00:08.611Z,13.13
2019-02-20T02:02:35.918Z,11.90
2019-02-20T02:05:03.636Z,12.27
2019-02-20T02:07:30.927Z,13.40
2019-02-20T02:09:58.170Z,13.90
2019-02-20T02:12:25.426Z,13.87
2019-02-20T02:14:52.677Z,13.97
2019-02-20T02:17:20.061Z,14.23
2019-02-20T02:19:47.350Z,13.70
2019-02-20T02:22:14.619Z,12.43
2019-02-20T02:24:41.894Z,13.43
2019-02-20T02:27:09.594Z,12.00
2019-02-20T02:29:37.028Z,14.53
2019-02-20T02:32:04.329Z,13.60
2019-02-20T02:34:31.731Z,13.83
2019-02-20T02:36:59.133Z,14.23
2019-02-20T02:39:26.592Z,13.30
2019-02-20T02:41:54.034Z,12.50
2019-02-20T02:44:21.421Z,14.00
2019-02-20T02:46:48.882Z,13.73
2019-02-20T02:49:16.263Z,12.70
2019-02-20T02:51:43.500Z,14.03
2019-02-20T02:54:10.761Z,11.73
2019-02-20T02:56:38.315Z,14.87
2019-02-20T02:59:05.589Z,14.23
2019-02-20T03:01:33.066Z,15.40
2019-02-20T03:04:00.519Z,12.73
2019-02-20T03:06:27.804Z,13.47
2019-02-20T03:08:55.205Z,15.07
2019-02-20T03:11:22.868Z,15.10
2019-02-20T03:13:50.408Z,17.80
2019-02-20T03:16:17.671Z,12.47
2019-02-20T03:18:44.919Z,15.30
2019-02-20T03:21:12.298Z,15.80
2019-02-20T03:23:40.710Z,14.23
2019-02-20T03:26:08.514Z,16.50
2019-02-20T03:28:35.934Z,15.27
2019-02-20T03:31:03.302Z,14.67
2019-02-20T03:33:30.705Z,16.20
2019-02-20T03:35:58.137Z,15.10
2019-02-20T03:38:30.326Z,14.53
2019-02-20T03:40:54.941Z,14.90
2019-02-20T03:43:22.365Z,15.00
2019-02-20T03:45:49.866Z,15.93
2019-02-20T03:48:17.274Z,15.60
2019-02-20T03:50:44.861Z,15.70
2019-02-20T03:53:12.171Z,16.27
2019-02-20T03:55:39.644Z,15.93
2019-02-20T03:58:06.886Z,17.90
2019-02-20T04:00:34.242Z,18.10
2019-02-20T04:03:01.533Z,16.57
2019-02-20T04:05:28.930Z,15.30
2019-02-20T04:07:56.181Z,16.30
2019-02-20T04:10:23.431Z,15.20
2019-02-20T04:12:50.775Z,16.03
2019-02-20T04:15:18.134Z,16.57
2019-02-20T04:17:45.418Z,15.83
2019-02-20T04:20:12.807Z,14.57
2019-02-20T04:22:40.207Z,16.80
2019-02-20T04:25:07.503Z,15.30
2019-02-20T04:27:34.772Z,15.73
2019-02-20T04:30:02.158Z,15.27
2019-02-20T04:32:29.728Z,15.67
2019-02-20T04:34:57.174Z,16.93
2019-02-20T04:37:24.396Z,27.97
2019-02-20T04:39:51.814Z,17.90
2019-02-20T04:42:19.173Z,16.30
2019-02-20T04:44:46.458Z,18.27
2019-02-20T04:47:13.781Z,22.03
2019-02-20T04:49:41.237Z,15.73
2019-02-20T04:52:08.478Z,18.90
2019-02-20T04:54:35.854Z,18.83
2019-02-20T04:57:03.233Z,18.20
2019-02-20T04:59:30.501Z,17.47
2019-02-20T05:01:57.750Z,17.03
2019-02-20T05:04:26.350Z,17.80
2019-02-20T05:06:53.703Z,18.10
2019-02-20T05:09:21.110Z,17.00
2019-02-20T05:11:48.550Z,17.73
2019-02-20T05:14:15.895Z,17.90
2019-02-20T05:16:43.188Z,20.40
2019-02-20T05:19:10.461Z,20.13
2019-02-20T05:21:37.887Z,22.60
2019-02-20T05:24:05.371Z,20.23
2019-02-20T05:26:32.721Z,19.37
2019-02-20T05:29:00.018Z,20.23
2019-02-20T05:31:27.495Z,19.57
2019-02-20T05:33:54.950Z,19.20
2019-02-20T05:36:22.195Z,20.30
2019-02-20T05:38:49.523Z,18.47
2019-02-20T05:41:16.794Z,20.47
2019-02-20T05:43:44.329Z,18.77
2019-02-20T05:46:11.599Z,19.40
2019-02-20T05:48:39.042Z,16.03
2019-02-20T05:51:06.522Z,18.80
2019-02-20T05:53:33.788Z,19.60
2019-02-20T05:56:01.284Z,18.43
2019-02-20T05:58:28.787Z,20.17
2019-02-20T06:00:56.144Z,19.90
2019-02-20T06:03:23.614Z,26.30
2019-02-20T06:05:50.860Z,21.60
2019-02-20T06:08:18.114Z,20.07
2019-02-20T06:10:45.486Z,19.00
2019-02-20T06:13:12.766Z,19.87
2019-02-20T06:15:40.138Z,20.13
2019-02-20T06:18:07.492Z,22.90
2019-02-20T06:20:34.902Z,19.40
2019-02-20T06:23:02.150Z,19.67
2019-02-20T06:25:29.542Z,18.30
2019-02-20T06:27:56.849Z,19.07
2019-02-20T06:30:24.290Z,32.20
2019-02-20T06:32:51.752Z,25.03
2019-02-20T06:35:18.982Z,20.67
2019-02-20T06:37:46.534Z,19.10
2019-02-20T06:40:13.822Z,19.47
2019-02-20T06:42:41.255Z,20.57
2019-02-20T06:45:13.942Z,20.70
2019-02-20T06:47:41.448Z,28.80
2019-02-20T06:50:09.698Z,22.63
2019-02-20T06:52:36.987Z,19.83
2019-02-20T06:55:04.663Z,19.47
2019-02-20T06:57:32.015Z,27.43
2019-02-20T06:59:59.267Z,43.23
2019-02-20T07:02:26.730Z,32.87
2019-02-20T07:05:31.659Z,24.17
2019-02-20T07:08:34.978Z,21.17
2019-02-20T07:11:40.685Z,29.00
2019-02-20T07:14:27.455Z,23.10
2019-02-20T07:17:41.962Z,21.60
2019-02-20T07:20:44.811Z,22.23
2019-02-20T07:23:24.158Z,64.93
2019-02-20T07:26:21.201Z,95.43
2019-02-20T07:29:44.973Z,47.00
2019-02-20T07:32:16.548Z,21.33
2019-02-20T07:34:43.842Z,20.03
2019-02-20T07:37:11.126Z,20.67
2019-02-20T07:39:38.534Z,21.70
2019-02-20T07:42:05.816Z,19.90
2019-02-20T07:44:33.071Z,18.33
2019-02-20T07:47:00.470Z,15.30
2019-02-20T07:49:27.974Z,16.87
2019-02-20T07:51:56.304Z,15.47
2019-02-20T07:54:23.627Z,16.67
2019-02-20T07:56:50.934Z,15.13
2019-02-20T07:59:18.294Z,17.30
2019-02-20T08:01:45.542Z,14.30
2019-02-20T08:04:13.031Z,14.60
2019-02-20T08:06:40.325Z,14.87
2019-02-20T08:09:07.690Z,17.63
2019-02-20T08:11:35.016Z,16.87
2019-02-20T08:14:02.413Z,16.40
2019-02-20T08:16:29.707Z,16.30
2019-02-20T08:18:56.958Z,16.60
2019-02-20T08:21:24.200Z,14.93
2019-02-20T08:23:51.436Z,15.70
2019-02-20T08:26:18.804Z,14.37
2019-02-20T08:28:46.050Z,13.93
2019-02-20T08:31:13.526Z,13.73
2019-02-20T08:33:40.882Z,14.10
2019-02-20T08:36:08.340Z,13.23
2019-02-20T08:38:35.781Z,13.20
2019-02-20T08:41:03.061Z,13.10
2019-02-20T08:43:30.398Z,13.80
2019-02-20T08:45:57.786Z,12.47
2019-02-20T08:48:26.498Z,12.50
2019-02-20T08:50:54.070Z,12.83
2019-02-20T08:53:21.470Z,14.57
2019-02-20T08:55:48.695Z,18.27
2019-02-20T08:58:16.114Z,16.20
2019-02-20T09:00:43.703Z,20.43
2019-02-20T09:03:11.063Z,14.97
2019-02-20T09:05:38.453Z,12.13
2019-02-20T09:08:05.847Z,11.20
2019-02-20T09:10:33.126Z,10.67
2019-02-20T09:13:00.401Z,9.53
2019-02-20T09:15:27.750Z,10.17
2019-02-20T09:17:55.058Z,13.90
2019-02-20T09:20:22.318Z,12.00
2019-02-20T09:22:49.742Z,10.17
2019-02-20T09:25:19.845Z,12.00
2019-02-20T09:27:46.236Z,19.73
2019-02-20T09:30:13.692Z,9.87
2019-02-20T09:32:40.982Z,11.90
2019-02-20T09:35:08.347Z,11.60
2019-02-20T09:37:35.642Z,9.77
2019-02-20T09:40:03.765Z,14.87
2019-02-20T09:42:31.222Z,13.87
2019-02-20T09:44:58.666Z,10.63
2019-02-20T09:47:26.171Z,10.50
2019-02-20T09:49:53.494Z,8.90
2019-02-20T09:52:20.862Z,11.43
2019-02-20T09:54:49.166Z,10.63
2019-02-20T09:57:16.418Z,13.37
2019-02-20T09:59:43.925Z,10.77
2019-02-20T10:02:11.163Z,10.93
2019-02-20T10:04:38.493Z,10.83
2019-02-20T10:07:05.848Z,11.43
2019-02-20T10:09:33.333Z,11.37
2019-02-20T10:12:00.622Z,10.87
2019-02-20T10:14:27.879Z,11.50
2019-02-20T10:16:55.205Z,12.43
2019-02-20T10:19:22.566Z,12.20
2019-02-20T10:21:49.844Z,11.60
2019-02-20T10:24:17.223Z,13.57
2019-02-20T10:26:44.894Z,12.20
2019-02-20T10:29:12.263Z,11.50
2019-02-20T10:31:39.743Z,14.47
2019-02-20T10:34:07.042Z,13.10
2019-02-20T10:36:34.287Z,12.30
2019-02-20T10:39:01.791Z,13.83
2019-02-20T10:41:29.422Z,11.43
2019-02-20T10:43:56.770Z,15.50
2019-02-20T10:46:24.055Z,11.30
2019-02-20T10:48:51.389Z,12.03
2019-02-20T10:51:18.845Z,10.53
2019-02-20T10:53:46.150Z,10.97
2019-02-20T10:56:14.425Z,9.23
2019-02-20T10:58:41.740Z,10.93
2019-02-20T11:01:08.962Z,10.43
2019-02-20T11:03:36.300Z,10.07
2019-02-20T11:06:03.518Z,11.30
2019-02-20T11:08:30.782Z,10.97
2019-02-20T11:10:58.070Z,10.60
2019-02-20T11:13:25.400Z,10.50
2019-02-20T11:15:52.613Z,9.63
2019-02-20T11:18:19.874Z,9.97
2019-02-20T11:20:48.585Z,9.33
2019-02-20T11:23:16.093Z,9.27
2019-02-20T11:25:43.346Z,9.60
2019-02-20T11:28:10.717Z,9.37
2019-02-20T11:30:38.323Z,10.10
2019-02-20T11:33:05.667Z,9.20
2019-02-20T11:35:32.903Z,8.87
2019-02-20T11:38:00.205Z,9.40
2019-02-20T11:40:27.730Z,8.87
2019-02-20T11:42:55.012Z,8.17
2019-02-20T11:45:22.405Z,7.50
2019-02-20T11:47:49.757Z,8.57
2019-02-20T11:50:17.019Z,8.50
2019-02-20T11:52:44.287Z,8.13
2019-02-20T11:55:11.651Z,8.40
2019-02-20T11:57:39.519Z,8.37
2019-02-20T12:00:08.378Z,8.87
2019-02-20T12:02:37.572Z,9.67
2019-02-20T12:05:05.149Z,8.37
2019-02-20T12:07:32.548Z,8.60
2019-02-20T12:09:59.982Z,8.47
2019-02-20T12:12:27.327Z,8.17
2019-02-20T12:14:54.658Z,16.80
2019-02-20T12:17:21.931Z,12.70
2019-02-20T12:19:49.175Z,9.03
2019-02-20T12:22:16.415Z,9.83
2019-02-20T12:24:43.766Z,7.90
2019-02-20T12:27:11.122Z,7.90
2019-02-20T12:29:38.450Z,10.60
2019-02-20T12:32:05.798Z,10.00
2019-02-20T12:34:33.179Z,8.50
2019-02-20T12:37:00.541Z,8.47
2019-02-20T12:39:27.889Z,9.40
2019-02-20T12:41:55.211Z,10.07
2019-02-20T12:44:22.518Z,8.67
2019-02-20T12:46:49.921Z,8.33
2019-02-20T12:49:17.322Z,9.13
2019-02-20T12:51:44.542Z,7.80
2019-02-20T12:54:11.914Z,8.73
2019-02-20T12:56:44.065Z,8.57
2019-02-20T12:59:08.466Z,10.50
2019-02-20T13:01:35.722Z,7.67
2019-02-20T13:04:02.983Z,7.80
2019-02-20T13:06:30.310Z,7.47
2019-02-20T13:08:57.663Z,8.50
2019-02-20T13:11:24.898Z,8.00
2019-02-20T13:13:52.210Z,7.80
2019-02-20T13:16:19.505Z,9.73
2019-02-20T13:18:46.770Z,8.20
2019-02-20T13:21:14.069Z,9.60
2019-02-20T13:23:41.320Z,11.50
2019-02-20T13:26:08.541Z,8.10
2019-02-20T13:28:35.886Z,7.87
2019-02-20T13:31:03.482Z,8.37
2019-02-20T13:33:30.752Z,7.57
2019-02-20T13:35:58.085Z,8.37
2019-02-20T13:38:25.449Z,6.50
2019-02-20T13:40:52.810Z,7.53
2019-02-20T13:43:20.058Z,9.27
2019-02-20T13:45:47.619Z,7.93
2019-02-20T13:48:14.974Z,7.97
2019-02-20T13:50:42.314Z,7.60
2019-02-20T13:53:09.699Z,7.03
2019-02-20T13:55:36.945Z,7.00
2019-02-20T13:58:04.278Z,8.60
2019-02-20T14:00:32.518Z,6.43
2019-02-20T14:03:01.182Z,7.30
2019-02-20T14:05:28.706Z,5.60
2019-02-20T14:07:56.065Z,6.93
2019-02-20T14:10:23.522Z,7.50
2019-02-20T14:12:50.885Z,6.43
2019-02-20T14:15:18.142Z,19.17
2019-02-20T14:17:45.666Z,22.40
2019-02-20T14:20:13.106Z,22.67
2019-02-20T14:22:40.781Z,14.57
2019-02-20T14:25:08.137Z,7.80
2019-02-20T14:27:35.481Z,7.73
2019-02-20T14:30:03.323Z,7.73
2019-02-20T14:32:30.792Z,7.50
2019-02-20T14:34:58.124Z,6.83
2019-02-20T14:37:25.466Z,7.27
2019-02-20T14:39:53.115Z,7.07
2019-02-20T14:42:20.394Z,7.10
2019-02-20T14:44:47.906Z,7.83
2019-02-20T14:47:15.430Z,7.13
2019-02-20T14:49:42.679Z,6.80
2019-02-20T14:52:10.125Z,9.23
2019-02-20T14:54:37.352Z,8.20
2019-02-20T14:57:04.725Z,8.37
2019-02-20T14:59:32.471Z,7.77
2019-02-20T15:02:00.922Z,6.67
2019-02-20T15:04:28.447Z,7.37
2019-02-20T15:06:55.815Z,7.90
2019-02-20T15:09:23.202Z,9.87
2019-02-20T15:11:50.735Z,9.37
2019-02-20T15:14:18.128Z,8.80
2019-02-20T15:16:45.769Z,9.43
2019-02-20T15:19:13.134Z,9.90
2019-02-20T15:21:40.563Z,8.33
2019-02-20T15:24:07.918Z,7.63
2019-02-20T15:26:35.245Z,9.37
2019-02-20T15:29:02.498Z,9.60
2019-02-20T15:31:33.777Z,8.20
2019-02-20T15:33:59.069Z,7.40
2019-02-20T15:36:26.525Z,8.63
2019-02-20T15:38:53.874Z,7.80
2019-02-20T15:41:21.316Z,8.43
2019-02-20T15:43:48.555Z,8.37
2019-02-20T15:46:15.894Z,8.83
2019-02-20T15:48:43.253Z,8.23
2019-02-20T15:51:10.536Z,7.70
2019-02-20T15:53:38.275Z,9.33
2019-02-20T15:56:05.590Z,8.50
2019-02-20T15:58:32.959Z,8.00
2019-02-20T16:01:00.398Z,8.57
2019-02-20T16:03:28.723Z,7.57
2019-02-20T16:05:56.682Z,7.13
2019-02-20T16:08:23.910Z,8.53
2019-02-20T16:10:51.161Z,7.40
2019-02-20T16:13:18.938Z,7.57
2019-02-20T16:15:46.186Z,9.30
2019-02-20T16:18:13.599Z,7.00
2019-02-20T16:20:41.027Z,11.20
2019-02-20T16:23:08.331Z,8.37
2019-02-20T16:25:35.742Z,7.70
2019-02-20T16:28:03.077Z,8.37
2019-02-20T16:30:30.460Z,7.37
2019-02-20T16:32:57.929Z,8.47
2019-02-20T16:35:25.385Z,8.37
2019-02-20T16:37:52.635Z,7.30
2019-02-20T16:40:19.946Z,9.73
2019-02-20T16:42:47.277Z,10.20
2019-02-20T16:45:20.299Z,9.30
2019-02-20T16:47:47.805Z,9.23
2019-02-20T16:50:15.165Z,11.93
2019-02-20T16:52:42.602Z,11.73
2019-02-20T16:55:09.972Z,11.40
2019-02-20T16:57:37.310Z,11.60
2019-02-20T17:00:05.239Z,10.90
2019-02-20T17:02:32.587Z,13.73
2019-02-20T17:05:00.871Z,13.83
2019-02-20T17:07:28.735Z,13.97
2019-02-20T17:09:55.949Z,15.73
2019-02-20T17:12:23.459Z,12.83
2019-02-20T17:14:50.892Z,12.20
2019-02-20T17:17:18.183Z,11.50
2019-02-20T17:19:45.542Z,17.13
2019-02-20T17:22:12.970Z,19.70
2019-02-20T17:24:40.631Z,27.37
2019-02-20T17:27:07.890Z,37.23
2019-02-20T17:29:35.178Z,42.60
2019-02-20T17:32:02.522Z,21.90
2019-02-20T17:34:29.874Z,23.10
2019-02-20T17:36:57.239Z,21.67
2019-02-20T17:39:24.607Z,12.63
2019-02-20T17:41:51.871Z,19.17
2019-02-20T17:44:19.433Z,23.37
2019-02-20T17:46:46.861Z,20.73
2019-02-20T17:49:14.353Z,16.13
2019-02-20T17:51:41.718Z,14.37
2019-02-20T17:54:09.098Z,13.83
2019-02-20T17:56:36.350Z,11.30
2019-02-20T17:59:03.914Z,15.57
2019-02-20T18:01:31.338Z,14.30
2019-02-20T18:03:58.562Z,14.97
2019-02-20T18:06:25.835Z,15.30
2019-02-20T18:08:53.250Z,10.70
2019-02-20T18:11:20.638Z,10.10
2019-02-20T18:13:47.886Z,9.70
2019-02-20T18:16:15.149Z,9.63
2019-02-20T18:18:42.394Z,8.57
2019-02-20T18:21:09.814Z,9.87
2019-02-20T18:23:37.031Z,11.70
2019-02-20T18:26:04.480Z,11.80
2019-02-20T18:28:32.207Z,10.17
2019-02-20T18:30:59.522Z,10.50
2019-02-20T18:33:26.986Z,22.13
2019-02-20T18:35:54.287Z,13.57
2019-02-20T18:38:21.506Z,26.83
2019-02-20T18:40:48.840Z,17.30
2019-02-20T18:43:16.189Z,11.67
2019-02-20T18:45:43.530Z,22.10
2019-02-20T18:48:10.989Z,32.13
2019-02-20T18:50:38.261Z,17.67
2019-02-20T18:53:05.643Z,15.63
2019-02-20T18:55:33.118Z,16.43
2019-02-20T18:58:00.433Z,20.50
2019-02-20T19:00:27.923Z,27.97
2019-02-20T19:02:55.298Z,25.87
2019-02-20T19:05:22.653Z,14.63
2019-02-20T19:07:50.460Z,15.00
2019-02-20T19:10:21.720Z,22.17
2019-02-20T19:13:34.061Z,16.90
2019-02-20T19:16:39.039Z,13.70
2019-02-20T19:19:30.553Z,14.63
2019-02-20T19:22:35.584Z,14.30
2019-02-20T19:25:45.246Z,14.70
2019-02-20T19:28:30.987Z,23.27
2019-02-20T19:32:07.654Z,33.70
2019-02-20T19:35:13.156Z,30.13
2019-02-20T19:38:19.024Z,28.10
2019-02-20T19:41:22.216Z,26.23
2019-02-20T19:44:16.209Z,22.40
2019-02-20T19:47:12.271Z,25.10
2019-02-20T19:50:07.199Z,20.77
2019-02-20T19:53:06.343Z,21.67
2019-02-20T19:56:15.295Z,19.53
2019-02-20T19:59:15.022Z,14.83
2019-02-20T20:02:28.927Z,13.70
2019-02-20T20:05:13.459Z,12.50
2019-02-20T20:08:21.467Z,15.23
2019-02-20T20:11:03.007Z,19.20
2019-02-20T20:14:04.360Z,20.70
2019-02-20T20:17:22.990Z,19.27
2019-02-20T20:20:33.966Z,21.40
2019-02-20T20:23:41.695Z,21.43
2019-02-20T20:26:23.087Z,18.90
2019-02-20T20:29:34.227Z,18.57
2019-02-20T20:32:25.107Z,20.00
2019-02-20T20:35:37.441Z,17.97
2019-02-20T20:38:14.667Z,17.33
2019-02-20T20:41:29.837Z,16.70
2019-02-20T20:44:13.068Z,15.93
2019-02-20T20:47:10.006Z,15.40
2019-02-20T20:50:15.795Z,14.40
2019-02-20T20:53:17.302Z,15.90
2019-02-20T20:56:31.327Z,18.10
2019-02-20T20:59:16.930Z,21.37
2019-02-20T21:02:03.879Z,23.83
2019-02-20T21:05:08.042Z,22.80
2019-02-20T21:07:45.587Z,23.33
2019-02-20T21:10:55.324Z,22.23
2019-02-20T21:14:11.336Z,20.53
2019-02-20T21:17:09.759Z,19.70
2019-02-20T21:20:06.608Z,21.23
2019-02-20T21:23:07.106Z,19.23
2019-02-20T21:26:07.734Z,19.50
2019-02-20T21:29:28.435Z,19.63
2019-02-20T21:32:39.393Z,21.00
2019-02-20T21:36:00.661Z,20.97
2019-02-20T21:38:52.126Z,21.43
2019-02-20T21:42:09.471Z,18.13
2019-02-20T21:45:24.892Z,16.20
2019-02-20T21:48:35.298Z,16.53
2019-02-20T21:51:10.124Z,17.57
2019-02-20T21:54:16.131Z,17.73
2019-02-20T21:57:24.391Z,18.50
2019-02-20T22:00:27.880Z,18.97
2019-02-20T22:03:31.930Z,19.03
2019-02-20T22:06:07.875Z,18.20
2019-02-20T22:09:28.974Z,19.47
2019-02-20T22:12:50.522Z,22.23
2019-02-20T22:15:54.202Z,22.30
2019-02-20T22:19:01.538Z,18.80
2019-02-20T22:22:16.897Z,18.97
2019-02-20T22:25:44.078Z,16.47
2019-02-20T22:29:03.943Z,16.40
2019-02-20T22:32:16.618Z,15.33
2019-02-20T22:35:09.426Z,16.83
2019-02-20T22:38:22.981Z,17.40
2019-02-20T22:41:05.246Z,17.07
2019-02-20T22:43:59.714Z,17.97
2019-02-20T22:46:40.522Z,16.90
2019-02-20T22:49:41.026Z,18.70
2019-02-20T22:52:34.173Z,19.37
2019-02-20T22:55:55.623Z,18.80
2019-02-20T22:58:49.978Z,17.60
2019-02-20T23:01:53.557Z,18.00
2019-02-20T23:05:11.854Z,19.07
2019-02-20T23:08:36.696Z,18.80
2019-02-20T23:11:42.990Z,17.30
2019-02-20T23:14:22.022Z,17.73
2019-02-20T23:16:49.290Z,20.50
2019-02-20T23:19:16.534Z,19.67
2019-02-20T23:21:43.777Z,18.10
2019-02-20T23:24:11.018Z,16.60
2019-02-20T23:26:38.254Z,16.43
2019-02-20T23:29:05.531Z,17.00
2019-02-20T23:31:32.986Z,18.40
2019-02-20T23:34:00.313Z,18.43
2019-02-20T23:36:27.700Z,15.80
2019-02-20T23:38:54.938Z,17.27
2019-02-20T23:41:22.186Z,16.50
2019-02-20T23:43:49.543Z,15.67
2019-02-20T23:46:16.887Z,16.00
2019-02-20T23:48:44.119Z,16.53
2019-02-20T23:51:11.389Z,17.30
2019-02-20T23:53:38.754Z,19.90
2019-02-20T23:56:05.994Z,19.03
2019-02-20T23:58:33.357Z,18.43
